sensor_id;sensor_type;location;lat;lon;timestamp;temperature;humidity
56436;DHT22;42335;44.872;20.658;2023-04-03T01:39:31;307.70;2304.00
56436;DHT22;42335;44.872;20.658;2023-04-03T01:41:57;307.60;2304.00
56436;DHT22;42335;44.872;20.658;2023-04-03T01:44:24;307.70;2304.00
56436;DHT22;42335;44.872;20.658;2023-04-03T01:46:50;307.60;2304.00
56436;DHT22;42335;44.872;20.658;2023-04-03T01:49:15;307.20;2304.00
56436;DHT22;42335;44.872;20.658;2023-04-03T01:51:41;307.20;2304.00
56436;DHT22;42335;44.872;20.658;2023-04-03T01:54:07;307.20;2304.00
56436;DHT22;42335;44.872;20.658;2023-04-03T01:56:33;307.20;2304.00
56436;DHT22;42335;44.872;20.658;2023-04-03T01:58:58;307.20;2304.00
56436;DHT22;42335;44.872;20.658;2023-04-03T02:38:02;307.30;2304.00
56436;DHT22;42335;44.872;20.658;2023-04-03T02:40:27;282.40;2278.40
56436;DHT22;42335;44.872;20.658;2023-04-03T02:42:53;282.50;2278.40
56436;DHT22;42335;44.872;20.658;2023-04-03T02:45:19;282.30;2278.40
56436;DHT22;42335;44.872;20.658;2023-04-03T03:09:39;282.40;2278.40
56436;DHT22;42335;44.872;20.658;2023-04-03T03:12:05;282.00;2278.40
56436;DHT22;42335;44.872;20.658;2023-04-03T03:14:31;282.00;2278.40
56436;DHT22;42335;44.872;20.658;2023-04-03T03:19:22;282.30;2278.40
56436;DHT22;42335;44.872;20.658;2023-04-03T03:21:48;282.10;2278.40
56436;DHT22;42335;44.872;20.658;2023-04-03T03:24:14;282.10;2278.40
56436;DHT22;42335;44.872;20.658;2023-04-03T03:26:41;282.00;2278.40
56436;DHT22;42335;44.872;20.658;2023-04-03T03:29:07;281.90;2278.40
56436;DHT22;42335;44.872;20.658;2023-04-03T03:31:32;281.80;2278.40
56436;DHT22;42335;44.872;20.658;2023-04-03T03:33:58;281.80;2278.40
56436;DHT22;42335;44.872;20.658;2023-04-03T03:36:23;281.60;2278.40
56436;DHT22;42335;44.872;20.658;2023-04-03T03:38:49;281.70;2278.40
56436;DHT22;42335;44.872;20.658;2023-04-03T03:41:15;281.70;2278.40
56436;DHT22;42335;44.872;20.658;2023-04-03T03:43:41;281.70;2278.40
56436;DHT22;42335;44.872;20.658;2023-04-03T03:46:06;281.70;2278.40
56436;DHT22;42335;44.872;20.658;2023-04-03T03:48:32;281.70;2278.40
56436;DHT22;42335;44.872;20.658;2023-04-03T03:50:58;281.70;2278.40
56436;DHT22;42335;44.872;20.658;2023-04-03T03:53:24;281.70;2278.40
56436;DHT22;42335;44.872;20.658;2023-04-03T03:55:50;281.60;2278.40
56436;DHT22;42335;44.872;20.658;2023-04-03T03:58:15;281.60;2278.40
56436;DHT22;42335;44.872;20.658;2023-04-03T04:00:41;256.90;2252.80
56436;DHT22;42335;44.872;20.658;2023-04-03T04:03:07;256.90;2252.80
56436;DHT22;42335;44.872;20.658;2023-04-03T04:05:32;256.90;2252.80
56436;DHT22;42335;44.872;20.658;2023-04-03T04:07:58;256.90;2252.80
56436;DHT22;42335;44.872;20.658;2023-04-03T04:10:24;256.90;2252.80
56436;DHT22;42335;44.872;20.658;2023-04-03T04:12:49;256.80;2252.80
56436;DHT22;42335;44.872;20.658;2023-04-03T04:15:16;256.90;2252.80
56436;DHT22;42335;44.872;20.658;2023-04-03T04:17:42;256.80;2252.80
56436;DHT22;42335;44.872;20.658;2023-04-03T04:20:08;256.90;2252.80
56436;DHT22;42335;44.872;20.658;2023-04-03T04:22:34;256.80;2252.80
56436;DHT22;42335;44.872;20.658;2023-04-03T04:24:59;256.80;2252.80
56436;DHT22;42335;44.872;20.658;2023-04-03T04:27:25;256.70;2252.80
56436;DHT22;42335;44.872;20.658;2023-04-03T04:29:51;256.70;2252.80
56436;DHT22;42335;44.872;20.658;2023-04-03T04:32:16;256.80;2252.80
56436;DHT22;42335;44.872;20.658;2023-04-03T04:34:42;256.70;2252.80
56436;DHT22;42335;44.872;20.658;2023-04-03T04:37:08;256.50;2252.80
56436;DHT22;42335;44.872;20.658;2023-04-03T04:39:33;256.40;2252.80
56436;DHT22;42335;44.872;20.658;2023-04-03T04:42:00;256.40;2252.80
56436;DHT22;42335;44.872;20.658;2023-04-03T04:44:25;256.50;2252.80
56436;DHT22;42335;44.872;20.658;2023-04-03T04:46:51;256.50;2252.80
56436;DHT22;42335;44.872;20.658;2023-04-03T04:49:17;256.50;2252.80
56436;DHT22;42335;44.872;20.658;2023-04-03T04:51:42;256.30;2252.80
56436;DHT22;42335;44.872;20.658;2023-04-03T04:54:08;256.40;2252.80
56436;DHT22;42335;44.872;20.658;2023-04-03T04:56:34;256.50;2252.80
56436;DHT22;42335;44.872;20.658;2023-04-03T04:58:59;256.50;2252.80
56436;DHT22;42335;44.872;20.658;2023-04-03T05:01:25;256.40;2252.80
56436;DHT22;42335;44.872;20.658;2023-04-03T05:03:51;256.40;2252.80
56436;DHT22;42335;44.872;20.658;2023-04-03T05:06:16;256.30;2252.80
56436;DHT22;42335;44.872;20.658;2023-04-03T05:08:42;256.30;2252.80
56436;DHT22;42335;44.872;20.658;2023-04-03T05:11:08;256.10;2252.80
56436;DHT22;42335;44.872;20.658;2023-04-03T05:13:33;256.30;2252.80
56436;DHT22;42335;44.872;20.658;2023-04-03T05:15:59;256.20;2252.80
56436;DHT22;42335;44.872;20.658;2023-04-03T05:18:25;256.30;2252.80
56436;DHT22;42335;44.872;20.658;2023-04-03T05:20:51;256.20;2252.80
56436;DHT22;42335;44.872;20.658;2023-04-03T05:23:17;256.20;2252.80
56436;DHT22;42335;44.872;20.658;2023-04-03T05:25:42;256.10;2252.80
56436;DHT22;42335;44.872;20.658;2023-04-03T05:28:11;256.20;2252.80
56436;DHT22;42335;44.872;20.658;2023-04-03T05:30:37;256.10;2252.80
56436;DHT22;42335;44.872;20.658;2023-04-03T05:33:02;256.10;2252.80
56436;DHT22;42335;44.872;20.658;2023-04-03T05:35:28;256.20;2252.80
56436;DHT22;42335;44.872;20.658;2023-04-03T05:37:54;256.20;2252.80
56436;DHT22;42335;44.872;20.658;2023-04-03T05:40:20;256.20;2252.80
56436;DHT22;42335;44.872;20.658;2023-04-03T05:42:46;256.20;2252.80
56436;DHT22;42335;44.872;20.658;2023-04-03T05:45:12;256.20;2252.80
56436;DHT22;42335;44.872;20.658;2023-04-03T05:47:37;256.20;2252.80
56436;DHT22;42335;44.872;20.658;2023-04-03T05:50:03;256.20;2252.80
56436;DHT22;42335;44.872;20.658;2023-04-03T05:52:37;256.10;2252.80
56436;DHT22;42335;44.872;20.658;2023-04-03T05:55:04;231.30;2252.80
56436;DHT22;42335;44.872;20.658;2023-04-03T05:57:30;256.00;2252.80
56436;DHT22;42335;44.872;20.658;2023-04-03T05:59:56;256.00;2252.80
56436;DHT22;42335;44.872;20.658;2023-04-03T06:02:23;256.10;2252.80
56436;DHT22;42335;44.872;20.658;2023-04-03T06:04:49;231.30;2252.80
56436;DHT22;42335;44.872;20.658;2023-04-03T06:07:18;231.30;2252.80
56436;DHT22;42335;44.872;20.658;2023-04-03T06:09:47;256.10;2252.80
56436;DHT22;42335;44.872;20.658;2023-04-03T06:12:12;256.00;2252.80
56436;DHT22;42335;44.872;20.658;2023-04-03T06:14:39;231.30;2252.80
56436;DHT22;42335;44.872;20.658;2023-04-03T06:17:04;231.30;2252.80
56436;DHT22;42335;44.872;20.658;2023-04-03T06:19:32;231.20;2252.80
56436;DHT22;42335;44.872;20.658;2023-04-03T06:21:58;231.20;2252.80
56436;DHT22;42335;44.872;20.658;2023-04-03T06:24:23;231.30;2252.80
56436;DHT22;42335;44.872;20.658;2023-04-03T06:26:51;231.30;2252.80
56436;DHT22;42335;44.872;20.658;2023-04-03T06:29:18;231.30;2252.80
56436;DHT22;42335;44.872;20.658;2023-04-03T06:31:45;231.30;2252.80
56436;DHT22;42335;44.872;20.658;2023-04-03T06:34:11;256.00;2252.80
56436;DHT22;42335;44.872;20.658;2023-04-03T06:36:37;231.30;2252.80
56436;DHT22;42335;44.872;20.658;2023-04-03T06:39:04;256.00;2252.80
56436;DHT22;42335;44.872;20.658;2023-04-03T06:41:30;256.10;2252.80
56436;DHT22;42335;44.872;20.658;2023-04-03T06:43:55;256.20;2252.80
56436;DHT22;42335;44.872;20.658;2023-04-03T06:46:23;256.10;2252.80
56436;DHT22;42335;44.872;20.658;2023-04-03T06:48:49;256.10;2252.80
56436;DHT22;42335;44.872;20.658;2023-04-03T06:51:22;256.10;2252.80
56436;DHT22;42335;44.872;20.658;2023-04-03T06:53:49;256.10;2252.80
56436;DHT22;42335;44.872;20.658;2023-04-03T06:56:16;256.10;2252.80
56436;DHT22;42335;44.872;20.658;2023-04-03T06:58:42;256.10;2252.80
56436;DHT22;42335;44.872;20.658;2023-04-03T07:01:10;256.00;2252.80
56436;DHT22;42335;44.872;20.658;2023-04-03T07:03:36;256.10;2252.80
56436;DHT22;42335;44.872;20.658;2023-04-03T07:06:03;256.10;2252.80
56436;DHT22;42335;44.872;20.658;2023-04-03T07:08:29;256.10;2252.80
56436;DHT22;42335;44.872;20.658;2023-04-03T07:10:55;256.10;2252.80
56436;DHT22;42335;44.872;20.658;2023-04-03T07:13:20;256.10;2252.80
56436;DHT22;42335;44.872;20.658;2023-04-03T07:15:46;231.20;2252.80
56436;DHT22;42335;44.872;20.658;2023-04-03T07:18:12;231.20;2252.80
56436;DHT22;42335;44.872;20.658;2023-04-03T07:20:38;256.00;2252.80
56436;DHT22;42335;44.872;20.658;2023-04-03T07:23:04;231.30;2252.80
56436;DHT22;42335;44.872;20.658;2023-04-03T07:25:30;231.30;2252.80
56436;DHT22;42335;44.872;20.658;2023-04-03T07:27:57;231.30;2252.80
56436;DHT22;42335;44.872;20.658;2023-04-03T07:30:23;231.20;2252.80
56436;DHT22;42335;44.872;20.658;2023-04-03T07:32:49;231.10;2252.80
56436;DHT22;42335;44.872;20.658;2023-04-03T07:35:15;231.10;2252.80
56436;DHT22;42335;44.872;20.658;2023-04-03T07:37:41;231.10;2252.80
56436;DHT22;42335;44.872;20.658;2023-04-03T07:40:08;231.10;2252.80
56436;DHT22;42335;44.872;20.658;2023-04-03T07:42:34;231.20;2252.80
56436;DHT22;42335;44.872;20.658;2023-04-03T07:45:01;231.20;2252.80
56436;DHT22;42335;44.872;20.658;2023-04-03T07:47:27;231.30;2252.80
56436;DHT22;42335;44.872;20.658;2023-04-03T07:49:52;231.30;2252.80
56436;DHT22;42335;44.872;20.658;2023-04-03T07:52:18;256.00;2252.80
56436;DHT22;42335;44.872;20.658;2023-04-03T07:54:44;256.10;2252.80
56436;DHT22;42335;44.872;20.658;2023-04-03T07:57:09;256.10;2252.80
56436;DHT22;42335;44.872;20.658;2023-04-03T07:59:36;256.10;2252.80
56436;DHT22;42335;44.872;20.658;2023-04-03T08:02:02;231.20;2252.80
56436;DHT22;42335;44.872;20.658;2023-04-03T08:04:30;231.30;2252.80
56436;DHT22;42335;44.872;20.658;2023-04-03T08:06:56;231.30;2252.80
56436;DHT22;42335;44.872;20.658;2023-04-03T08:09:22;256.10;2252.80
56436;DHT22;42335;44.872;20.658;2023-04-03T08:11:48;256.10;2252.80
56436;DHT22;42335;44.872;20.658;2023-04-03T08:14:14;256.10;2252.80
56436;DHT22;42335;44.872;20.658;2023-04-03T08:16:45;256.10;2252.80
56436;DHT22;42335;44.872;20.658;2023-04-03T08:19:11;256.20;2252.80
56436;DHT22;42335;44.872;20.658;2023-04-03T08:21:40;256.10;2252.80
56436;DHT22;42335;44.872;20.658;2023-04-03T08:24:07;256.10;2252.80
56436;DHT22;42335;44.872;20.658;2023-04-03T08:26:33;256.10;2252.80
56436;DHT22;42335;44.872;20.658;2023-04-03T08:28:58;256.10;2252.80
56436;DHT22;42335;44.872;20.658;2023-04-03T08:31:24;256.20;2252.80
56436;DHT22;42335;44.872;20.658;2023-04-03T08:33:50;256.10;2252.80
56436;DHT22;42335;44.872;20.658;2023-04-03T08:36:24;256.10;2252.80
56436;DHT22;42335;44.872;20.658;2023-04-03T08:38:51;256.10;2252.80
56436;DHT22;42335;44.872;20.658;2023-04-03T08:41:43;256.10;2252.80
56436;DHT22;42335;44.872;20.658;2023-04-03T08:47:28;256.00;2252.80
56436;DHT22;42335;44.872;20.658;2023-04-03T08:49:59;256.00;2252.80
56436;DHT22;42335;44.872;20.658;2023-04-03T08:55:24;256.00;2252.80
56436;DHT22;42335;44.872;20.658;2023-04-03T08:58:11;256.00;2252.80
56436;DHT22;42335;44.872;20.658;2023-04-03T09:01:00;256.20;2252.80
56436;DHT22;42335;44.872;20.658;2023-04-03T09:03:31;256.20;2252.80
56436;DHT22;42335;44.872;20.658;2023-04-03T09:06:17;256.30;2252.80
56436;DHT22;42335;44.872;20.658;2023-04-03T09:09:02;256.50;2252.80
56436;DHT22;42335;44.872;20.658;2023-04-03T09:21:50;256.80;2252.80
56436;DHT22;42335;44.872;20.658;2023-04-03T09:24:16;281.60;2278.40
56436;DHT22;42335;44.872;20.658;2023-04-03T09:31:44;282.10;2278.40
56436;DHT22;42335;44.872;20.658;2023-04-03T10:04:43;307.60;2304.00
56436;DHT22;42335;44.872;20.658;2023-04-03T10:07:35;308.10;2304.00
56436;DHT22;42335;44.872;20.658;2023-04-03T10:10:22;308.10;2304.00
56436;DHT22;42335;44.872;20.658;2023-04-03T10:13:09;332.80;2329.60
56436;DHT22;42335;44.872;20.658;2023-04-03T10:15:45;332.90;2329.60
56436;DHT22;42335;44.872;20.658;2023-04-03T10:19:24;333.00;2329.60
56436;DHT22;42335;44.872;20.658;2023-04-03T10:29:33;333.10;2329.60
56436;DHT22;42335;44.872;20.658;2023-04-03T10:32:14;333.20;2329.60
56436;DHT22;42335;44.872;20.658;2023-04-03T10:34:44;333.10;2329.60
56436;DHT22;42335;44.872;20.658;2023-04-03T10:37:29;333.10;2329.60
56436;DHT22;42335;44.872;20.658;2023-04-03T10:43:01;333.40;2329.60
56436;DHT22;42335;44.872;20.658;2023-04-03T10:54:24;358.80;2252.80
56436;DHT22;42335;44.872;20.658;2023-04-03T10:56:52;358.80;2227.20
56436;DHT22;42335;44.872;20.658;2023-04-03T10:59:32;359.00;2201.60
56436;DHT22;42335;44.872;20.658;2023-04-03T11:02:06;359.30;2150.40
56436;DHT22;42335;44.872;20.658;2023-04-03T11:04:36;384.00;2150.40
56436;DHT22;42335;44.872;20.658;2023-04-03T11:07:17;359.10;2124.80
56436;DHT22;42335;44.872;20.658;2023-04-03T11:09:48;359.20;2176.00
56436;DHT22;42335;44.872;20.658;2023-04-03T11:14:43;359.10;2201.60
56436;DHT22;42335;44.872;20.658;2023-04-03T11:17:29;359.30;2150.40
56436;DHT22;42335;44.872;20.658;2023-04-03T11:22:45;384.00;2124.80
56436;DHT22;42335;44.872;20.658;2023-04-03T11:30:13;384.30;2022.40
56436;DHT22;42335;44.872;20.658;2023-04-03T11:32:59;384.30;2048.00
56436;DHT22;42335;44.872;20.658;2023-04-03T11:35:27;384.20;1996.80
56436;DHT22;42335;44.872;20.658;2023-04-03T11:37:54;384.00;1996.80
56436;DHT22;42335;44.872;20.658;2023-04-03T12:32:12;358.50;2201.60
56436;DHT22;42335;44.872;20.658;2023-04-03T12:44:20;333.50;2304.00
56436;DHT22;42335;44.872;20.658;2023-04-03T12:46:52;333.40;2329.60
56436;DHT22;42335;44.872;20.658;2023-04-03T12:49:39;333.50;2329.60
56436;DHT22;42335;44.872;20.658;2023-04-03T12:52:37;333.40;2329.60
56436;DHT22;42335;44.872;20.658;2023-04-03T12:55:21;333.30;2278.40
56436;DHT22;42335;44.872;20.658;2023-04-03T12:57:47;333.20;2278.40
56436;DHT22;42335;44.872;20.658;2023-04-03T13:00:21;333.10;2329.60
56436;DHT22;42335;44.872;20.658;2023-04-03T13:02:48;333.00;2329.60
56436;DHT22;42335;44.872;20.658;2023-04-03T13:05:17;333.10;2329.60
56436;DHT22;42335;44.872;20.658;2023-04-03T13:07:43;333.10;2329.60
56436;DHT22;42335;44.872;20.658;2023-04-03T13:12:45;333.10;2304.00
56436;DHT22;42335;44.872;20.658;2023-04-03T13:15:15;333.20;2304.00
56436;DHT22;42335;44.872;20.658;2023-04-03T13:17:42;333.10;2304.00
56436;DHT22;42335;44.872;20.658;2023-04-03T13:20:26;333.10;2329.60
56436;DHT22;42335;44.872;20.658;2023-04-03T13:23:02;333.20;2329.60
56436;DHT22;42335;44.872;20.658;2023-04-03T13:25:32;333.00;2329.60
56436;DHT22;42335;44.872;20.658;2023-04-03T13:28:01;333.00;2329.60
56436;DHT22;42335;44.872;20.658;2023-04-03T13:30:35;333.00;2329.60
56436;DHT22;42335;44.872;20.658;2023-04-03T13:33:20;333.00;2329.60
56436;DHT22;42335;44.872;20.658;2023-04-03T13:35:46;333.00;2329.60
56436;DHT22;42335;44.872;20.658;2023-04-03T13:40:51;333.00;2329.60
56436;DHT22;42335;44.872;20.658;2023-04-03T13:43:24;332.90;2329.60
56436;DHT22;42335;44.872;20.658;2023-04-03T13:48:43;332.90;2329.60
56436;DHT22;42335;44.872;20.658;2023-04-03T13:53:58;332.90;2329.60
56436;DHT22;42335;44.872;20.658;2023-04-03T13:56:35;332.90;2329.60
56436;DHT22;42335;44.872;20.658;2023-04-03T14:01:51;332.80;2329.60
56436;DHT22;42335;44.872;20.658;2023-04-03T14:04:19;332.80;2329.60
56436;DHT22;42335;44.872;20.658;2023-04-03T14:06:46;332.80;2329.60
56436;DHT22;42335;44.872;20.658;2023-04-03T14:09:13;332.90;2329.60
56436;DHT22;42335;44.872;20.658;2023-04-03T14:11:40;332.90;2329.60
56436;DHT22;42335;44.872;20.658;2023-04-03T14:14:15;332.90;2329.60
56436;DHT22;42335;44.872;20.658;2023-04-03T14:16:57;332.80;2329.60
56436;DHT22;42335;44.872;20.658;2023-04-03T14:19:34;332.80;2329.60
56436;DHT22;42335;44.872;20.658;2023-04-03T14:22:20;308.10;2304.00
56436;DHT22;42335;44.872;20.658;2023-04-03T14:24:48;332.80;2329.60
56436;DHT22;42335;44.872;20.658;2023-04-03T14:29:46;332.90;2329.60
56436;DHT22;42335;44.872;20.658;2023-04-03T14:32:14;332.90;2329.60
56436;DHT22;42335;44.872;20.658;2023-04-03T14:34:41;332.80;2329.60
56436;DHT22;42335;44.872;20.658;2023-04-03T14:37:18;332.80;2329.60
56436;DHT22;42335;44.872;20.658;2023-04-03T14:39:45;332.80;2329.60
56436;DHT22;42335;44.872;20.658;2023-04-03T14:42:18;332.80;2329.60
56436;DHT22;42335;44.872;20.658;2023-04-03T14:44:44;308.10;2304.00
56436;DHT22;42335;44.872;20.658;2023-04-03T14:47:12;308.10;2304.00
56436;DHT22;42335;44.872;20.658;2023-04-03T14:49:39;308.10;2304.00
56436;DHT22;42335;44.872;20.658;2023-04-03T14:52:05;308.00;2304.00
56436;DHT22;42335;44.872;20.658;2023-04-03T14:54:31;308.00;2304.00
56436;DHT22;42335;44.872;20.658;2023-04-03T14:56:58;308.00;2304.00
56436;DHT22;42335;44.872;20.658;2023-04-03T14:59:31;308.10;2304.00
56436;DHT22;42335;44.872;20.658;2023-04-03T15:01:58;308.10;2304.00
56436;DHT22;42335;44.872;20.658;2023-04-03T15:04:23;308.00;2304.00
56436;DHT22;42335;44.872;20.658;2023-04-03T15:06:51;308.00;2304.00
56436;DHT22;42335;44.872;20.658;2023-04-03T15:09:23;308.00;2304.00
56436;DHT22;42335;44.872;20.658;2023-04-03T15:11:51;308.00;2304.00
56436;DHT22;42335;44.872;20.658;2023-04-03T15:14:17;307.90;2304.00
56436;DHT22;42335;44.872;20.658;2023-04-03T15:16:43;307.90;2304.00
56436;DHT22;42335;44.872;20.658;2023-04-03T15:19:09;307.90;2304.00
56436;DHT22;42335;44.872;20.658;2023-04-03T15:21:35;308.00;2304.00
56436;DHT22;42335;44.872;20.658;2023-04-03T15:24:01;308.00;2304.00
56436;DHT22;42335;44.872;20.658;2023-04-03T15:26:27;308.00;2304.00
56436;DHT22;42335;44.872;20.658;2023-04-03T15:28:53;308.00;2304.00
56436;DHT22;42335;44.872;20.658;2023-04-03T15:31:19;308.00;2304.00
56436;DHT22;42335;44.872;20.658;2023-04-03T15:33:45;307.90;2304.00
56436;DHT22;42335;44.872;20.658;2023-04-03T15:36:10;307.90;2304.00
56436;DHT22;42335;44.872;20.658;2023-04-03T15:38:36;307.80;2304.00
56436;DHT22;42335;44.872;20.658;2023-04-03T15:41:03;307.70;2304.00
56436;DHT22;42335;44.872;20.658;2023-04-03T15:43:29;307.80;2304.00
56436;DHT22;42335;44.872;20.658;2023-04-03T15:45:59;307.80;2304.00
56436;DHT22;42335;44.872;20.658;2023-04-03T16:00:36;308.10;2252.80
56436;DHT22;42335;44.872;20.658;2023-04-03T16:03:19;307.60;2278.40
56436;DHT22;42335;44.872;20.658;2023-04-03T16:05:46;307.60;2278.40
56436;DHT22;42335;44.872;20.658;2023-04-03T16:08:12;307.60;2278.40
56436;DHT22;42335;44.872;20.658;2023-04-03T16:10:38;307.60;2278.40
56436;DHT22;42335;44.872;20.658;2023-04-03T16:13:05;307.60;2304.00
56436;DHT22;42335;44.872;20.658;2023-04-03T16:15:31;307.60;2304.00
56436;DHT22;42335;44.872;20.658;2023-04-03T16:17:58;307.50;2304.00
56436;DHT22;42335;44.872;20.658;2023-04-03T16:20:25;307.60;2304.00
56436;DHT22;42335;44.872;20.658;2023-04-03T16:22:51;307.50;2304.00
56436;DHT22;42335;44.872;20.658;2023-04-03T16:25:17;307.50;2304.00
56436;DHT22;42335;44.872;20.658;2023-04-03T16:27:43;307.50;2304.00
56436;DHT22;42335;44.872;20.658;2023-04-03T16:30:09;307.40;2304.00
56436;DHT22;42335;44.872;20.658;2023-04-03T16:32:36;307.40;2304.00
56436;DHT22;42335;44.872;20.658;2023-04-03T16:35:03;307.30;2304.00
56436;DHT22;42335;44.872;20.658;2023-04-03T16:37:29;307.30;2304.00
56436;DHT22;42335;44.872;20.658;2023-04-03T16:39:55;307.20;2304.00
56436;DHT22;42335;44.872;20.658;2023-04-03T16:42:21;307.20;2304.00
56436;DHT22;42335;44.872;20.658;2023-04-03T16:44:46;307.20;2304.00
56436;DHT22;42335;44.872;20.658;2023-04-03T16:47:12;307.20;2278.40
56436;DHT22;42335;44.872;20.658;2023-04-03T16:49:39;282.50;2252.80
56436;DHT22;42335;44.872;20.658;2023-04-03T16:52:05;282.50;2227.20
56436;DHT22;42335;44.872;20.658;2023-04-03T16:54:32;282.50;2227.20
56436;DHT22;42335;44.872;20.658;2023-04-03T17:31:07;282.20;2176.00
56436;DHT22;42335;44.872;20.658;2023-04-03T17:33:33;281.80;2201.60
56436;DHT22;42335;44.872;20.658;2023-04-03T17:36:00;281.70;2227.20
56436;DHT22;42335;44.872;20.658;2023-04-03T17:38:28;281.70;2227.20
56436;DHT22;42335;44.872;20.658;2023-04-03T17:40:58;281.70;2201.60
56436;DHT22;42335;44.872;20.658;2023-04-03T17:43:24;281.70;2201.60
56436;DHT22;42335;44.872;20.658;2023-04-03T17:45:50;281.60;2201.60
56436;DHT22;42335;44.872;20.658;2023-04-03T17:48:17;281.60;2201.60
56436;DHT22;42335;44.872;20.658;2023-04-03T17:50:42;281.60;2201.60
56436;DHT22;42335;44.872;20.658;2023-04-03T17:53:08;281.60;2201.60
56436;DHT22;42335;44.872;20.658;2023-04-03T17:55:38;256.90;2201.60
56436;DHT22;42335;44.872;20.658;2023-04-03T17:58:04;256.90;2201.60
56436;DHT22;42335;44.872;20.658;2023-04-03T18:00:30;256.90;2227.20
56436;DHT22;42335;44.872;20.658;2023-04-03T18:02:56;256.90;2201.60
56436;DHT22;42335;44.872;20.658;2023-04-03T18:05:27;256.80;2201.60
56436;DHT22;42335;44.872;20.658;2023-04-03T18:07:52;256.90;2176.00
56436;DHT22;42335;44.872;20.658;2023-04-03T18:10:18;256.90;2176.00
56436;DHT22;42335;44.872;20.658;2023-04-03T18:12:44;256.80;2176.00
56436;DHT22;42335;44.872;20.658;2023-04-03T18:15:11;256.60;2201.60
56436;DHT22;42335;44.872;20.658;2023-04-03T18:17:36;256.60;2201.60
56436;DHT22;42335;44.872;20.658;2023-04-03T18:20:03;256.60;2227.20
56436;DHT22;42335;44.872;20.658;2023-04-03T18:22:29;256.60;2227.20
56436;DHT22;42335;44.872;20.658;2023-04-03T18:24:55;256.50;2227.20
56436;DHT22;42335;44.872;20.658;2023-04-03T18:27:24;256.50;2252.80
56436;DHT22;42335;44.872;20.658;2023-04-03T18:29:57;256.50;2252.80
56436;DHT22;42335;44.872;20.658;2023-04-03T18:32:24;256.50;2227.20
56436;DHT22;42335;44.872;20.658;2023-04-03T18:34:50;256.40;2227.20
56436;DHT22;42335;44.872;20.658;2023-04-03T18:37:16;256.40;2227.20
56436;DHT22;42335;44.872;20.658;2023-04-03T18:39:43;256.30;2227.20
56436;DHT22;42335;44.872;20.658;2023-04-03T18:42:12;256.20;2227.20
56436;DHT22;42335;44.872;20.658;2023-04-03T18:44:40;256.10;2252.80
56436;DHT22;42335;44.872;20.658;2023-04-03T18:47:07;256.20;2252.80
56436;DHT22;42335;44.872;20.658;2023-04-03T18:49:36;256.20;2227.20
56436;DHT22;42335;44.872;20.658;2023-04-03T18:52:02;256.10;2201.60
56436;DHT22;42335;44.872;20.658;2023-04-03T18:54:28;256.10;2201.60
56436;DHT22;42335;44.872;20.658;2023-04-03T18:56:54;256.00;2176.00
56436;DHT22;42335;44.872;20.658;2023-04-03T18:59:20;231.30;2176.00
56436;DHT22;42335;44.872;20.658;2023-04-03T19:01:46;231.20;2201.60
56436;DHT22;42335;44.872;20.658;2023-04-03T19:04:12;231.20;2252.80
56436;DHT22;42335;44.872;20.658;2023-04-03T19:06:38;231.10;2227.20
56436;DHT22;42335;44.872;20.658;2023-04-03T19:09:05;231.10;2201.60
56436;DHT22;42335;44.872;20.658;2023-04-03T19:11:32;231.00;2227.20
56436;DHT22;42335;44.872;20.658;2023-04-03T19:13:58;231.00;2227.20
56436;DHT22;42335;44.872;20.658;2023-04-03T19:16:24;230.90;2227.20
56436;DHT22;42335;44.872;20.658;2023-04-03T19:18:50;230.80;2227.20
56436;DHT22;42335;44.872;20.658;2023-04-03T19:21:16;230.70;2227.20
56436;DHT22;42335;44.872;20.658;2023-04-03T19:23:42;230.60;2201.60
56436;DHT22;42335;44.872;20.658;2023-04-03T19:26:10;230.60;2227.20
56436;DHT22;42335;44.872;20.658;2023-04-03T19:28:36;230.60;2227.20
56436;DHT22;42335;44.872;20.658;2023-04-03T19:31:13;230.60;2252.80
56436;DHT22;42335;44.872;20.658;2023-04-03T19:33:39;230.90;2227.20
56436;DHT22;42335;44.872;20.658;2023-04-03T19:45:55;230.60;2227.20
56436;DHT22;42335;44.872;20.658;2023-04-03T19:48:21;230.50;2227.20
56436;DHT22;42335;44.872;20.658;2023-04-03T19:50:47;205.70;2252.80
56436;DHT22;42335;44.872;20.658;2023-04-03T19:53:13;230.40;2252.80
56436;DHT22;42335;44.872;20.658;2023-04-03T19:55:45;205.60;2252.80
56436;DHT22;42335;44.872;20.658;2023-04-03T19:58:11;205.30;2252.80
56436;DHT22;42335;44.872;20.658;2023-04-03T20:00:37;205.20;2252.80
56436;DHT22;42335;44.872;20.658;2023-04-03T20:03:03;205.10;2252.80
56436;DHT22;42335;44.872;20.658;2023-04-03T20:05:28;205.00;2252.80
56436;DHT22;42335;44.872;20.658;2023-04-03T20:07:54;205.00;2252.80
56436;DHT22;42335;44.872;20.658;2023-04-03T20:10:20;204.90;2252.80
56436;DHT22;42335;44.872;20.658;2023-04-03T20:12:46;204.80;2252.80
56436;DHT22;42335;44.872;20.658;2023-04-03T20:15:12;180.10;2252.80
56436;DHT22;42335;44.872;20.658;2023-04-03T20:17:38;180.10;2252.80
56436;DHT22;42335;44.872;20.658;2023-04-03T20:20:05;180.00;2252.80
56436;DHT22;42335;44.872;20.658;2023-04-03T20:22:31;179.90;2252.80
56436;DHT22;42335;44.872;20.658;2023-04-03T21:32:11;153.90;2252.80
56436;DHT22;42335;44.872;20.658;2023-04-03T21:34:36;153.80;2252.80
56436;DHT22;42335;44.872;20.658;2023-04-03T21:37:04;153.70;2252.80
56436;DHT22;42335;44.872;20.658;2023-04-03T21:39:30;153.70;2252.80
56436;DHT22;42335;44.872;20.658;2023-04-03T21:41:56;128.90;2252.80
56436;DHT22;42335;44.872;20.658;2023-04-03T21:44:23;128.90;2252.80
56436;DHT22;42335;44.872;20.658;2023-04-03T21:46:49;128.60;2252.80
56436;DHT22;42335;44.872;20.658;2023-04-03T21:49:22;128.50;2252.80
56436;DHT22;42335;44.872;20.658;2023-04-03T21:51:48;128.40;2252.80
56436;DHT22;42335;44.872;20.658;2023-04-03T21:54:16;128.40;2252.80
56436;DHT22;42335;44.872;20.658;2023-04-03T21:56:41;128.30;2252.80
56436;DHT22;42335;44.872;20.658;2023-04-03T21:59:07;128.40;2252.80
56436;DHT22;42335;44.872;20.658;2023-04-03T22:01:33;128.40;2252.80
56436;DHT22;42335;44.872;20.658;2023-04-03T22:03:58;128.40;2252.80